sensor_id;sensor_type;location;lat;lon;timestamp;P1;durP1;ratioP1;P2;durP2;ratioP2
18200;SDS011;9226;47.858;9.594;2022-12-31T00:02:24;2.90;;;1.90;;
18200;SDS011;9226;47.858;9.594;2022-12-31T00:04:50;3.07;;;2.00;;
18200;SDS011;9226;47.858;9.594;2022-12-31T00:07:15;2.73;;;1.83;;
18200;SDS011;9226;47.858;9.594;2022-12-31T00:09:40;2.50;;;1.97;;
18200;SDS011;9226;47.858;9.594;2022-12-31T00:12:06;3.00;;;1.90;;
18200;SDS011;9226;47.858;9.594;2022-12-31T00:14:31;4.03;;;2.07;;
18200;SDS011;9226;47.858;9.594;2022-12-31T00:16:57;5.47;;;2.20;;
18200;SDS011;9226;47.858;9.594;2022-12-31T00:19:22;3.27;;;1.70;;
18200;SDS011;9226;47.858;9.594;2022-12-31T00:21:48;5.20;;;2.30;;
18200;SDS011;9226;47.858;9.594;2022-12-31T00:24:14;2.67;;;2.03;;
18200;SDS011;9226;47.858;9.594;2022-12-31T00:26:40;3.00;;;2.00;;
18200;SDS011;9226;47.858;9.594;2022-12-31T00:29:05;3.10;;;2.10;;
18200;SDS011;9226;47.858;9.594;2022-12-31T00:31:31;3.17;;;1.73;;
18200;SDS011;9226;47.858;9.594;2022-12-31T00:33:59;4.37;;;2.30;;
18200;SDS011;9226;47.858;9.594;2022-12-31T00:36:26;2.83;;;2.00;;
18200;SDS011;9226;47.858;9.594;2022-12-31T00:38:54;4.13;;;1.90;;
18200;SDS011;9226;47.858;9.594;2022-12-31T00:41:21;4.20;;;2.00;;
18200;SDS011;9226;47.858;9.594;2022-12-31T00:43:48;4.20;;;2.40;;
18200;SDS011;9226;47.858;9.594;2022-12-31T00:46:14;4.17;;;2.37;;
18200;SDS011;9226;47.858;9.594;2022-12-31T00:48:40;4.77;;;2.77;;
18200;SDS011;9226;47.858;9.594;2022-12-31T00:51:07;4.13;;;2.47;;
18200;SDS011;9226;47.858;9.594;2022-12-31T00:53:34;6.53;;;2.67;;
18200;SDS011;9226;47.858;9.594;2022-12-31T00:56:01;3.67;;;2.33;;
18200;SDS011;9226;47.858;9.594;2022-12-31T00:58:28;4.57;;;2.60;;
18200;SDS011;9226;47.858;9.594;2022-12-31T01:00:54;5.70;;;2.40;;
18200;SDS011;9226;47.858;9.594;2022-12-31T01:03:20;5.13;;;2.40;;
18200;SDS011;9226;47.858;9.594;2022-12-31T01:05:45;4.23;;;2.40;;
18200;SDS011;9226;47.858;9.594;2022-12-31T01:08:11;4.00;;;2.63;;
18200;SDS011;9226;47.858;9.594;2022-12-31T01:10:36;4.53;;;2.50;;
18200;SDS011;9226;47.858;9.594;2022-12-31T01:13:20;5.00;;;2.70;;
18200;SDS011;9226;47.858;9.594;2022-12-31T01:15:46;4.03;;;2.47;;
18200;SDS011;9226;47.858;9.594;2022-12-31T01:18:11;4.47;;;2.77;;
18200;SDS011;9226;47.858;9.594;2022-12-31T01:20:37;5.20;;;2.87;;
18200;SDS011;9226;47.858;9.594;2022-12-31T01:23:05;4.60;;;3.03;;
18200;SDS011;9226;47.858;9.594;2022-12-31T01:25:35;3.73;;;2.17;;
18200;SDS011;9226;47.858;9.594;2022-12-31T01:28:02;3.93;;;2.70;;
18200;SDS011;9226;47.858;9.594;2022-12-31T01:30:28;3.47;;;2.23;;
18200;SDS011;9226;47.858;9.594;2022-12-31T01:32:54;3.50;;;2.20;;
18200;SDS011;9226;47.858;9.594;2022-12-31T01:35:20;3.10;;;2.03;;
18200;SDS011;9226;47.858;9.594;2022-12-31T01:37:45;3.43;;;2.20;;
18200;SDS011;9226;47.858;9.594;2022-12-31T01:40:11;3.93;;;2.20;;
18200;SDS011;9226;47.858;9.594;2022-12-31T01:42:36;2.53;;;1.80;;
18200;SDS011;9226;47.858;9.594;2022-12-31T01:45:02;2.90;;;1.90;;
18200;SDS011;9226;47.858;9.594;2022-12-31T01:47:33;2.80;;;1.60;;
18200;SDS011;9226;47.858;9.594;2022-12-31T01:50:03;2.50;;;1.50;;
18200;SDS011;9226;47.858;9.594;2022-12-31T01:52:35;2.43;;;1.37;;
18200;SDS011;9226;47.858;9.594;2022-12-31T01:57:44;1.53;;;1.27;;
18200;SDS011;9226;47.858;9.594;2022-12-31T02:00:12;2.10;;;1.30;;
18200;SDS011;9226;47.858;9.594;2022-12-31T02:02:38;3.70;;;1.50;;
18200;SDS011;9226;47.858;9.594;2022-12-31T02:05:06;1.97;;;1.20;;
18200;SDS011;9226;47.858;9.594;2022-12-31T02:07:37;3.77;;;1.50;;
18200;SDS011;9226;47.858;9.594;2022-12-31T02:10:03;2.60;;;1.40;;
18200;SDS011;9226;47.858;9.594;2022-12-31T02:12:29;1.87;;;1.23;;
18200;SDS011;9226;47.858;9.594;2022-12-31T02:14:55;2.63;;;1.30;;
18200;SDS011;9226;47.858;9.594;2022-12-31T02:31:49;3.03;;;1.20;;
18200;SDS011;9226;47.858;9.594;2022-12-31T02:34:22;1.70;;;1.03;;
18200;SDS011;9226;47.858;9.594;2022-12-31T02:36:50;1.57;;;0.90;;
18200;SDS011;9226;47.858;9.594;2022-12-31T02:39:18;1.00;;;0.90;;
18200;SDS011;9226;47.858;9.594;2022-12-31T02:41:48;1.57;;;1.07;;
18200;SDS011;9226;47.858;9.594;2022-12-31T02:47:05;1.83;;;1.20;;
18200;SDS011;9226;47.858;9.594;2022-12-31T03:00:47;1.87;;;0.97;;
18200;SDS011;9226;47.858;9.594;2022-12-31T03:03:34;1.20;;;0.87;;
18200;SDS011;9226;47.858;9.594;2022-12-31T03:06:02;1.37;;;0.80;;
18200;SDS011;9226;47.858;9.594;2022-12-31T03:08:28;1.17;;;0.90;;
18200;SDS011;9226;47.858;9.594;2022-12-31T03:10:54;1.17;;;0.80;;
18200;SDS011;9226;47.858;9.594;2022-12-31T03:13:21;1.20;;;1.00;;
18200;SDS011;9226;47.858;9.594;2022-12-31T03:15:48;1.03;;;0.90;;
18200;SDS011;9226;47.858;9.594;2022-12-31T03:18:14;1.40;;;0.97;;
18200;SDS011;9226;47.858;9.594;2022-12-31T03:20:45;1.10;;;0.73;;
18200;SDS011;9226;47.858;9.594;2022-12-31T03:23:41;1.93;;;0.90;;
18200;SDS011;9226;47.858;9.594;2022-12-31T03:26:14;1.47;;;0.80;;
18200;SDS011;9226;47.858;9.594;2022-12-31T03:28:41;1.90;;;0.97;;
18200;SDS011;9226;47.858;9.594;2022-12-31T03:31:11;1.30;;;0.80;;
18200;SDS011;9226;47.858;9.594;2022-12-31T03:33:39;1.13;;;0.80;;
18200;SDS011;9226;47.858;9.594;2022-12-31T03:36:12;1.27;;;0.97;;
18200;SDS011;9226;47.858;9.594;2022-12-31T03:38:38;0.70;;;0.70;;
18200;SDS011;9226;47.858;9.594;2022-12-31T03:41:05;0.63;;;0.63;;
18200;SDS011;9226;47.858;9.594;2022-12-31T03:43:33;0.70;;;0.70;;
18200;SDS011;9226;47.858;9.594;2022-12-31T03:45:58;0.97;;;0.80;;
18200;SDS011;9226;47.858;9.594;2022-12-31T03:48:25;1.87;;;0.80;;
18200;SDS011;9226;47.858;9.594;2022-12-31T03:50:51;0.87;;;0.80;;
18200;SDS011;9226;47.858;9.594;2022-12-31T03:53:16;3.07;;;0.80;;
18200;SDS011;9226;47.858;9.594;2022-12-31T03:55:42;0.57;;;0.57;;
18200;SDS011;9226;47.858;9.594;2022-12-31T03:58:07;0.70;;;0.70;;
18200;SDS011;9226;47.858;9.594;2022-12-31T04:00:32;1.00;;;0.90;;
18200;SDS011;9226;47.858;9.594;2022-12-31T04:02:58;2.03;;;0.93;;
18200;SDS011;9226;47.858;9.594;2022-12-31T04:05:24;0.60;;;0.60;;
18200;SDS011;9226;47.858;9.594;2022-12-31T04:07:49;0.80;;;0.80;;
18200;SDS011;9226;47.858;9.594;2022-12-31T04:10:17;2.77;;;0.67;;
18200;SDS011;9226;47.858;9.594;2022-12-31T04:12:44;2.77;;;0.90;;
18200;SDS011;9226;47.858;9.594;2022-12-31T04:15:10;1.33;;;0.87;;
18200;SDS011;9226;47.858;9.594;2022-12-31T04:17:40;0.70;;;0.70;;
18200;SDS011;9226;47.858;9.594;2022-12-31T04:20:05;0.87;;;0.70;;
18200;SDS011;9226;47.858;9.594;2022-12-31T04:22:31;0.70;;;0.70;;
18200;SDS011;9226;47.858;9.594;2022-12-31T04:24:56;1.43;;;0.87;;
18200;SDS011;9226;47.858;9.594;2022-12-31T04:27:22;0.97;;;0.70;;
18200;SDS011;9226;47.858;9.594;2022-12-31T04:29:47;2.73;;;0.87;;
18200;SDS011;9226;47.858;9.594;2022-12-31T04:32:13;2.10;;;0.80;;
18200;SDS011;9226;47.858;9.594;2022-12-31T04:34:38;0.70;;;0.70;;
18200;SDS011;9226;47.858;9.594;2022-12-31T04:37:03;0.90;;;0.70;;
18200;SDS011;9226;47.858;9.594;2022-12-31T04:39:29;0.87;;;0.70;;
18200;SDS011;9226;47.858;9.594;2022-12-31T04:41:54;0.90;;;0.70;;
18200;SDS011;9226;47.858;9.594;2022-12-31T04:44:20;2.00;;;0.80;;
18200;SDS011;9226;47.858;9.594;2022-12-31T04:46:45;0.70;;;0.70;;
18200;SDS011;9226;47.858;9.594;2022-12-31T04:49:11;3.47;;;1.03;;
18200;SDS011;9226;47.858;9.594;2022-12-31T04:51:37;0.90;;;0.83;;
18200;SDS011;9226;47.858;9.594;2022-12-31T04:54:02;2.20;;;0.90;;
18200;SDS011;9226;47.858;9.594;2022-12-31T04:56:28;0.60;;;0.60;;
18200;SDS011;9226;47.858;9.594;2022-12-31T04:58:54;0.80;;;0.80;;
18200;SDS011;9226;47.858;9.594;2022-12-31T05:01:20;0.70;;;0.63;;
18200;SDS011;9226;47.858;9.594;2022-12-31T05:03:46;1.10;;;0.90;;
18200;SDS011;9226;47.858;9.594;2022-12-31T05:06:16;0.67;;;0.67;;
18200;SDS011;9226;47.858;9.594;2022-12-31T05:08:43;0.80;;;0.70;;
18200;SDS011;9226;47.858;9.594;2022-12-31T05:11:09;0.90;;;0.90;;
18200;SDS011;9226;47.858;9.594;2022-12-31T05:13:34;0.83;;;0.70;;
18200;SDS011;9226;47.858;9.594;2022-12-31T05:16:00;1.30;;;0.90;;
18200;SDS011;9226;47.858;9.594;2022-12-31T05:18:26;0.87;;;0.80;;
18200;SDS011;9226;47.858;9.594;2022-12-31T05:20:52;1.47;;;0.70;;
18200;SDS011;9226;47.858;9.594;2022-12-31T05:23:18;0.80;;;0.70;;
18200;SDS011;9226;47.858;9.594;2022-12-31T05:25:43;1.00;;;0.70;;
18200;SDS011;9226;47.858;9.594;2022-12-31T05:28:10;1.67;;;0.70;;
18200;SDS011;9226;47.858;9.594;2022-12-31T05:30:36;0.87;;;0.70;;
18200;SDS011;9226;47.858;9.594;2022-12-31T05:33:02;0.70;;;0.70;;
18200;SDS011;9226;47.858;9.594;2022-12-31T05:35:27;1.30;;;0.80;;
18200;SDS011;9226;47.858;9.594;2022-12-31T05:37:53;3.30;;;0.80;;
18200;SDS011;9226;47.858;9.594;2022-12-31T05:40:18;0.83;;;0.70;;
18200;SDS011;9226;47.858;9.594;2022-12-31T05:42:43;1.20;;;0.90;;
18200;SDS011;9226;47.858;9.594;2022-12-31T05:45:09;1.30;;;0.80;;
18200;SDS011;9226;47.858;9.594;2022-12-31T05:47:38;0.70;;;0.70;;
18200;SDS011;9226;47.858;9.594;2022-12-31T05:50:04;0.73;;;0.60;;
18200;SDS011;9226;47.858;9.594;2022-12-31T05:52:31;1.10;;;0.77;;
18200;SDS011;9226;47.858;9.594;2022-12-31T05:54:56;1.27;;;0.80;;
18200;SDS011;9226;47.858;9.594;2022-12-31T05:57:22;1.13;;;0.80;;
18200;SDS011;9226;47.858;9.594;2022-12-31T05:59:47;2.17;;;0.80;;
18200;SDS011;9226;47.858;9.594;2022-12-31T06:02:13;0.70;;;0.60;;
18200;SDS011;9226;47.858;9.594;2022-12-31T06:04:38;0.77;;;0.70;;
18200;SDS011;9226;47.858;9.594;2022-12-31T06:07:03;0.93;;;0.80;;
18200;SDS011;9226;47.858;9.594;2022-12-31T06:09:29;0.90;;;0.80;;
18200;SDS011;9226;47.858;9.594;2022-12-31T06:11:54;1.13;;;0.97;;
18200;SDS011;9226;47.858;9.594;2022-12-31T06:14:20;0.80;;;0.80;;
18200;SDS011;9226;47.858;9.594;2022-12-31T06:16:45;1.47;;;1.00;;
18200;SDS011;9226;47.858;9.594;2022-12-31T06:19:10;1.40;;;1.00;;
18200;SDS011;9226;47.858;9.594;2022-12-31T06:21:36;1.73;;;1.10;;
18200;SDS011;9226;47.858;9.594;2022-12-31T06:24:01;1.50;;;1.20;;
18200;SDS011;9226;47.858;9.594;2022-12-31T06:26:27;2.27;;;1.23;;
18200;SDS011;9226;47.858;9.594;2022-12-31T06:28:52;3.27;;;1.10;;
18200;SDS011;9226;47.858;9.594;2022-12-31T06:31:18;2.13;;;1.27;;
18200;SDS011;9226;47.858;9.594;2022-12-31T06:33:43;2.50;;;1.23;;
18200;SDS011;9226;47.858;9.594;2022-12-31T06:36:12;1.40;;;1.20;;
18200;SDS011;9226;47.858;9.594;2022-12-31T06:38:39;2.67;;;1.20;;
18200;SDS011;9226;47.858;9.594;2022-12-31T06:41:07;1.30;;;1.03;;
18200;SDS011;9226;47.858;9.594;2022-12-31T06:43:35;2.53;;;1.30;;
18200;SDS011;9226;47.858;9.594;2022-12-31T06:46:02;2.50;;;1.20;;
18200;SDS011;9226;47.858;9.594;2022-12-31T06:48:29;2.37;;;1.43;;
18200;SDS011;9226;47.858;9.594;2022-12-31T06:50:54;2.17;;;1.60;;
18200;SDS011;9226;47.858;9.594;2022-12-31T06:53:20;2.40;;;1.73;;
18200;SDS011;9226;47.858;9.594;2022-12-31T06:55:46;2.20;;;1.60;;
18200;SDS011;9226;47.858;9.594;2022-12-31T06:58:13;3.33;;;1.83;;
18200;SDS011;9226;47.858;9.594;2022-12-31T07:00:40;2.63;;;1.90;;
18200;SDS011;9226;47.858;9.594;2022-12-31T07:03:49;4.57;;;2.10;;
18200;SDS011;9226;47.858;9.594;2022-12-31T07:06:36;4.93;;;3.00;;
18200;SDS011;9226;47.858;9.594;2022-12-31T07:14:44;3.37;;;2.03;;
18200;SDS011;9226;47.858;9.594;2022-12-31T07:17:27;3.93;;;2.70;;
18200;SDS011;9226;47.858;9.594;2022-12-31T07:20:10;4.60;;;2.70;;
18200;SDS011;9226;47.858;9.594;2022-12-31T07:22:41;3.33;;;2.00;;
18200;SDS011;9226;47.858;9.594;2022-12-31T07:25:11;2.37;;;1.60;;
18200;SDS011;9226;47.858;9.594;2022-12-31T07:36:41;3.20;;;2.10;;
18200;SDS011;9226;47.858;9.594;2022-12-31T07:39:40;3.13;;;1.53;;
18200;SDS011;9226;47.858;9.594;2022-12-31T07:42:26;2.30;;;1.47;;
18200;SDS011;9226;47.858;9.594;2022-12-31T07:45:23;2.60;;;1.50;;
18200;SDS011;9226;47.858;9.594;2022-12-31T07:47:57;6.77;;;3.53;;
18200;SDS011;9226;47.858;9.594;2022-12-31T07:50:23;7.63;;;3.47;;
18200;SDS011;9226;47.858;9.594;2022-12-31T07:52:49;3.07;;;1.40;;
18200;SDS011;9226;47.858;9.594;2022-12-31T07:55:14;2.60;;;1.73;;
18200;SDS011;9226;47.858;9.594;2022-12-31T07:57:49;1.93;;;1.37;;
18200;SDS011;9226;47.858;9.594;2022-12-31T08:00:21;2.70;;;1.50;;
18200;SDS011;9226;47.858;9.594;2022-12-31T08:05:59;4.33;;;2.80;;
18200;SDS011;9226;47.858;9.594;2022-12-31T08:14:26;3.83;;;2.17;;
18200;SDS011;9226;47.858;9.594;2022-12-31T08:16:53;2.80;;;2.10;;
18200;SDS011;9226;47.858;9.594;2022-12-31T08:19:23;3.07;;;2.03;;
18200;SDS011;9226;47.858;9.594;2022-12-31T08:27:14;2.73;;;1.83;;
18200;SDS011;9226;47.858;9.594;2022-12-31T08:29:50;3.93;;;1.70;;
18200;SDS011;9226;47.858;9.594;2022-12-31T08:37:58;2.20;;;1.40;;
18200;SDS011;9226;47.858;9.594;2022-12-31T08:40:27;1.73;;;1.43;;
18200;SDS011;9226;47.858;9.594;2022-12-31T08:45:51;1.93;;;1.30;;
18200;SDS011;9226;47.858;9.594;2022-12-31T08:50:48;2.30;;;1.60;;
18200;SDS011;9226;47.858;9.594;2022-12-31T08:53:14;1.70;;;1.40;;
18200;SDS011;9226;47.858;9.594;2022-12-31T08:55:40;1.90;;;1.30;;
18200;SDS011;9226;47.858;9.594;2022-12-31T08:58:19;2.23;;;1.33;;
18200;SDS011;9226;47.858;9.594;2022-12-31T09:00:47;2.70;;;1.50;;
18200;SDS011;9226;47.858;9.594;2022-12-31T09:05:52;3.00;;;1.80;;
18200;SDS011;9226;47.858;9.594;2022-12-31T09:16:39;3.70;;;2.00;;
18200;SDS011;9226;47.858;9.594;2022-12-31T09:19:16;4.47;;;2.40;;
18200;SDS011;9226;47.858;9.594;2022-12-31T09:21:41;4.23;;;2.40;;
18200;SDS011;9226;47.858;9.594;2022-12-31T09:24:10;5.33;;;2.67;;
18200;SDS011;9226;47.858;9.594;2022-12-31T09:32:06;3.40;;;1.40;;
18200;SDS011;9226;47.858;9.594;2022-12-31T09:34:51;2.00;;;1.50;;
18200;SDS011;9226;47.858;9.594;2022-12-31T09:37:28;4.47;;;1.40;;
18200;SDS011;9226;47.858;9.594;2022-12-31T09:43:47;3.37;;;1.40;;
18200;SDS011;9226;47.858;9.594;2022-12-31T09:54:41;1.10;;;1.00;;
18200;SDS011;9226;47.858;9.594;2022-12-31T10:10:51;1.40;;;1.10;;
18200;SDS011;9226;47.858;9.594;2022-12-31T10:16:02;1.03;;;0.90;;
18200;SDS011;9226;47.858;9.594;2022-12-31T10:18:36;1.43;;;0.93;;
18200;SDS011;9226;47.858;9.594;2022-12-31T11:05:22;1.47;;;0.90;;
18200;SDS011;9226;47.858;9.594;2022-12-31T11:38:25;1.63;;;1.00;;
18200;SDS011;9226;47.858;9.594;2022-12-31T11:41:10;1.00;;;0.90;;
18200;SDS011;9226;47.858;9.594;2022-12-31T11:43:52;3.40;;;1.10;;
18200;SDS011;9226;47.858;9.594;2022-12-31T11:49:15;1.63;;;1.00;;
18200;SDS011;9226;47.858;9.594;2022-12-31T11:54:57;1.50;;;1.10;;
18200;SDS011;9226;47.858;9.594;2022-12-31T11:57:39;1.30;;;1.00;;
18200;SDS011;9226;47.858;9.594;2022-12-31T12:02:41;2.10;;;1.00;;
18200;SDS011;9226;47.858;9.594;2022-12-31T12:05:11;2.07;;;1.20;;
18200;SDS011;9226;47.858;9.594;2022-12-31T12:07:39;1.80;;;1.20;;
18200;SDS011;9226;47.858;9.594;2022-12-31T12:10:13;2.50;;;1.20;;
18200;SDS011;9226;47.858;9.594;2022-12-31T12:13:08;2.13;;;1.03;;
18200;SDS011;9226;47.858;9.594;2022-12-31T12:15:35;2.20;;;1.20;;
18200;SDS011;9226;47.858;9.594;2022-12-31T12:18:08;2.83;;;1.63;;
18200;SDS011;9226;47.858;9.594;2022-12-31T12:20:39;2.40;;;1.27;;
18200;SDS011;9226;47.858;9.594;2022-12-31T12:23:22;2.33;;;1.10;;
18200;SDS011;9226;47.858;9.594;2022-12-31T12:25:50;2.50;;;1.47;;
18200;SDS011;9226;47.858;9.594;2022-12-31T12:30:41;2.60;;;1.30;;
18200;SDS011;9226;47.858;9.594;2022-12-31T12:33:14;2.20;;;1.20;;
18200;SDS011;9226;47.858;9.594;2022-12-31T12:35:42;2.83;;;1.10;;
18200;SDS011;9226;47.858;9.594;2022-12-31T12:38:16;2.20;;;1.30;;
18200;SDS011;9226;47.858;9.594;2022-12-31T12:43:24;2.20;;;1.23;;
18200;SDS011;9226;47.858;9.594;2022-12-31T12:46:03;4.23;;;1.20;;
18200;SDS011;9226;47.858;9.594;2022-12-31T12:48:38;1.40;;;1.00;;
18200;SDS011;9226;47.858;9.594;2022-12-31T12:53:56;3.20;;;1.27;;
18200;SDS011;9226;47.858;9.594;2022-12-31T13:02:14;1.97;;;1.30;;
18200;SDS011;9226;47.858;9.594;2022-12-31T13:04:59;2.20;;;1.10;;
18200;SDS011;9226;47.858;9.594;2022-12-31T13:07:58;1.33;;;1.07;;
18200;SDS011;9226;47.858;9.594;2022-12-31T13:20:57;1.77;;;1.40;;
18200;SDS011;9226;47.858;9.594;2022-12-31T13:23:50;2.90;;;1.40;;
18200;SDS011;9226;47.858;9.594;2022-12-31T13:26:38;2.43;;;1.53;;
18200;SDS011;9226;47.858;9.594;2022-12-31T13:29:13;4.07;;;1.20;;
18200;SDS011;9226;47.858;9.594;2022-12-31T13:31:43;2.30;;;1.20;;
18200;SDS011;9226;47.858;9.594;2022-12-31T13:36:37;1.73;;;1.20;;
18200;SDS011;9226;47.858;9.594;2022-12-31T13:39:06;1.90;;;1.13;;
18200;SDS011;9226;47.858;9.594;2022-12-31T13:41:44;1.73;;;1.30;;
18200;SDS011;9226;47.858;9.594;2022-12-31T13:44:20;2.00;;;1.20;;
18200;SDS011;9226;47.858;9.594;2022-12-31T13:49:32;2.27;;;1.10;;
18200;SDS011;9226;47.858;9.594;2022-12-31T13:57:56;3.60;;;1.00;;
18200;SDS011;9226;47.858;9.594;2022-12-31T14:00:26;2.40;;;1.07;;
18200;SDS011;9226;47.858;9.594;2022-12-31T14:05:34;2.30;;;1.33;;
18200;SDS011;9226;47.858;9.594;2022-12-31T14:08:05;2.37;;;1.67;;
18200;SDS011;9226;47.858;9.594;2022-12-31T14:19:02;6.87;;;3.17;;
18200;SDS011;9226;47.858;9.594;2022-12-31T14:21:52;4.63;;;2.73;;
18200;SDS011;9226;47.858;9.594;2022-12-31T14:27:02;5.00;;;3.00;;
18200;SDS011;9226;47.858;9.594;2022-12-31T14:30:19;4.53;;;3.40;;
18200;SDS011;9226;47.858;9.594;2022-12-31T14:38:02;2.43;;;2.10;;
18200;SDS011;9226;47.858;9.594;2022-12-31T14:40:53;2.97;;;1.70;;
18200;SDS011;9226;47.858;9.594;2022-12-31T14:51:45;7.87;;;2.73;;
18200;SDS011;9226;47.858;9.594;2022-12-31T14:57:23;4.53;;;2.53;;
18200;SDS011;9226;47.858;9.594;2022-12-31T15:00:01;2.47;;;1.70;;
18200;SDS011;9226;47.858;9.594;2022-12-31T15:02:48;3.30;;;2.00;;
18200;SDS011;9226;47.858;9.594;2022-12-31T15:05:16;2.37;;;1.37;;
18200;SDS011;9226;47.858;9.594;2022-12-31T15:12:55;4.07;;;1.77;;
18200;SDS011;9226;47.858;9.594;2022-12-31T15:21:19;2.53;;;1.47;;
18200;SDS011;9226;47.858;9.594;2022-12-31T15:23:47;2.83;;;1.70;;
18200;SDS011;9226;47.858;9.594;2022-12-31T15:29:18;3.13;;;1.70;;
18200;SDS011;9226;47.858;9.594;2022-12-31T15:32:00;3.07;;;1.70;;
18200;SDS011;9226;47.858;9.594;2022-12-31T15:34:29;3.53;;;1.60;;
18200;SDS011;9226;47.858;9.594;2022-12-31T15:36:59;3.33;;;2.00;;
18200;SDS011;9226;47.858;9.594;2022-12-31T15:41:55;2.40;;;1.60;;
18200;SDS011;9226;47.858;9.594;2022-12-31T15:50:05;3.63;;;1.67;;
18200;SDS011;9226;47.858;9.594;2022-12-31T15:57:57;3.23;;;1.80;;
18200;SDS011;9226;47.858;9.594;2022-12-31T16:00:33;3.03;;;1.83;;
18200;SDS011;9226;47.858;9.594;2022-12-31T16:03:23;3.30;;;1.67;;
18200;SDS011;9226;47.858;9.594;2022-12-31T16:05:51;4.67;;;1.40;;
18200;SDS011;9226;47.858;9.594;2022-12-31T16:08:23;3.13;;;1.70;;
18200;SDS011;9226;47.858;9.594;2022-12-31T16:10:52;4.97;;;1.43;;
18200;SDS011;9226;47.858;9.594;2022-12-31T16:13:20;4.50;;;2.40;;
18200;SDS011;9226;47.858;9.594;2022-12-31T16:15:48;4.27;;;2.00;;
18200;SDS011;9226;47.858;9.594;2022-12-31T16:18:16;13.57;;;4.47;;
18200;SDS011;9226;47.858;9.594;2022-12-31T16:20:43;47.70;;;17.10;;
18200;SDS011;9226;47.858;9.594;2022-12-31T16:23:20;6.83;;;2.17;;
18200;SDS011;9226;47.858;9.594;2022-12-31T16:25:47;4.93;;;2.50;;
18200;SDS011;9226;47.858;9.594;2022-12-31T16:28:19;11.57;;;5.60;;
18200;SDS011;9226;47.858;9.594;2022-12-31T16:31:12;4.20;;;2.40;;
18200;SDS011;9226;47.858;9.594;2022-12-31T16:33:38;3.40;;;2.03;;
18200;SDS011;9226;47.858;9.594;2022-12-31T16:36:04;2.20;;;1.60;;
18200;SDS011;9226;47.858;9.594;2022-12-31T16:38:33;1.80;;;1.47;;
18200;SDS011;9226;47.858;9.594;2022-12-31T16:43:27;3.83;;;1.40;;
18200;SDS011;9226;47.858;9.594;2022-12-31T16:46:16;2.17;;;1.37;;
18200;SDS011;9226;47.858;9.594;2022-12-31T16:48:57;2.30;;;1.67;;
18200;SDS011;9226;47.858;9.594;2022-12-31T16:51:27;5.10;;;2.27;;
18200;SDS011;9226;47.858;9.594;2022-12-31T16:53:54;4.33;;;2.27;;
18200;SDS011;9226;47.858;9.594;2022-12-31T16:56:22;3.00;;;1.73;;
18200;SDS011;9226;47.858;9.594;2022-12-31T16:59:00;4.63;;;2.00;;
18200;SDS011;9226;47.858;9.594;2022-12-31T17:01:30;3.03;;;2.03;;
18200;SDS011;9226;47.858;9.594;2022-12-31T17:03:58;3.10;;;2.17;;
18200;SDS011;9226;47.858;9.594;2022-12-31T17:06:28;2.63;;;1.87;;
18200;SDS011;9226;47.858;9.594;2022-12-31T17:16:35;4.83;;;2.30;;
18200;SDS011;9226;47.858;9.594;2022-12-31T17:21:55;6.13;;;3.30;;
18200;SDS011;9226;47.858;9.594;2022-12-31T17:24:21;6.93;;;2.93;;
18200;SDS011;9226;47.858;9.594;2022-12-31T17:26:48;7.87;;;4.03;;
18200;SDS011;9226;47.858;9.594;2022-12-31T17:29:19;10.97;;;4.57;;
18200;SDS011;9226;47.858;9.594;2022-12-31T17:34:29;10.43;;;4.77;;
18200;SDS011;9226;47.858;9.594;2022-12-31T17:39:42;8.43;;;3.17;;
18200;SDS011;9226;47.858;9.594;2022-12-31T17:42:12;4.83;;;3.17;;
18200;SDS011;9226;47.858;9.594;2022-12-31T17:44:47;10.60;;;6.30;;
18200;SDS011;9226;47.858;9.594;2022-12-31T17:47:12;10.77;;;4.57;;
18200;SDS011;9226;47.858;9.594;2022-12-31T17:49:38;20.40;;;10.07;;
18200;SDS011;9226;47.858;9.594;2022-12-31T17:52:13;12.93;;;6.47;;
18200;SDS011;9226;47.858;9.594;2022-12-31T17:54:40;12.20;;;5.43;;
18200;SDS011;9226;47.858;9.594;2022-12-31T17:57:06;7.60;;;4.60;;
18200;SDS011;9226;47.858;9.594;2022-12-31T17:59:45;10.10;;;6.27;;
18200;SDS011;9226;47.858;9.594;2022-12-31T18:02:10;12.37;;;5.47;;
18200;SDS011;9226;47.858;9.594;2022-12-31T18:04:37;5.83;;;3.67;;
18200;SDS011;9226;47.858;9.594;2022-12-31T18:07:02;8.00;;;4.17;;
18200;SDS011;9226;47.858;9.594;2022-12-31T18:09:27;7.33;;;3.90;;
18200;SDS011;9226;47.858;9.594;2022-12-31T18:11:53;8.13;;;4.63;;
18200;SDS011;9226;47.858;9.594;2022-12-31T18:14:18;6.30;;;4.10;;
18200;SDS011;9226;47.858;9.594;2022-12-31T18:16:44;5.47;;;3.50;;
18200;SDS011;9226;47.858;9.594;2022-12-31T18:19:11;6.20;;;3.70;;
18200;SDS011;9226;47.858;9.594;2022-12-31T18:21:38;7.77;;;4.43;;
18200;SDS011;9226;47.858;9.594;2022-12-31T18:24:04;5.17;;;3.17;;
18200;SDS011;9226;47.858;9.594;2022-12-31T18:26:30;5.47;;;3.27;;
18200;SDS011;9226;47.858;9.594;2022-12-31T18:29:00;6.67;;;4.37;;
18200;SDS011;9226;47.858;9.594;2022-12-31T18:31:34;8.30;;;4.50;;
18200;SDS011;9226;47.858;9.594;2022-12-31T18:34:00;9.47;;;5.07;;
18200;SDS011;9226;47.858;9.594;2022-12-31T18:36:25;14.03;;;6.53;;
18200;SDS011;9226;47.858;9.594;2022-12-31T18:38:52;10.63;;;5.63;;
18200;SDS011;9226;47.858;9.594;2022-12-31T18:41:18;13.77;;;6.57;;
18200;SDS011;9226;47.858;9.594;2022-12-31T18:43:46;10.53;;;5.10;;
18200;SDS011;9226;47.858;9.594;2022-12-31T18:46:12;8.57;;;4.80;;
18200;SDS011;9226;47.858;9.594;2022-12-31T18:48:40;8.30;;;4.80;;
18200;SDS011;9226;47.858;9.594;2022-12-31T18:51:10;10.30;;;4.80;;
18200;SDS011;9226;47.858;9.594;2022-12-31T18:53:46;7.03;;;4.47;;
18200;SDS011;9226;47.858;9.594;2022-12-31T18:56:14;11.20;;;6.63;;
18200;SDS011;9226;47.858;9.594;2022-12-31T18:58:41;8.60;;;4.97;;
18200;SDS011;9226;47.858;9.594;2022-12-31T19:03:57;10.33;;;5.33;;
18200;SDS011;9226;47.858;9.594;2022-12-31T19:06:25;10.83;;;4.67;;
18200;SDS011;9226;47.858;9.594;2022-12-31T19:08:52;8.47;;;4.40;;
18200;SDS011;9226;47.858;9.594;2022-12-31T19:11:17;12.90;;;5.20;;
18200;SDS011;9226;47.858;9.594;2022-12-31T19:13:44;10.03;;;4.50;;
18200;SDS011;9226;47.858;9.594;2022-12-31T19:16:10;14.80;;;5.80;;
18200;SDS011;9226;47.858;9.594;2022-12-31T19:18:35;10.23;;;5.20;;
18200;SDS011;9226;47.858;9.594;2022-12-31T19:21:01;10.20;;;4.50;;
18200;SDS011;9226;47.858;9.594;2022-12-31T19:23:26;10.73;;;5.00;;
18200;SDS011;9226;47.858;9.594;2022-12-31T19:25:52;8.40;;;4.93;;
18200;SDS011;9226;47.858;9.594;2022-12-31T19:28:21;9.40;;;4.73;;
18200;SDS011;9226;47.858;9.594;2022-12-31T19:30:48;8.37;;;5.17;;
18200;SDS011;9226;47.858;9.594;2022-12-31T19:33:14;9.43;;;5.07;;
18200;SDS011;9226;47.858;9.594;2022-12-31T19:35:40;12.97;;;6.30;;
18200;SDS011;9226;47.858;9.594;2022-12-31T19:38:19;13.97;;;6.40;;
18200;SDS011;9226;47.858;9.594;2022-12-31T19:40:46;8.63;;;5.07;;
18200;SDS011;9226;47.858;9.594;2022-12-31T19:43:14;8.77;;;5.07;;
18200;SDS011;9226;47.858;9.594;2022-12-31T19:45:41;7.80;;;3.73;;
18200;SDS011;9226;47.858;9.594;2022-12-31T19:48:09;9.70;;;4.30;;
18200;SDS011;9226;47.858;9.594;2022-12-31T19:50:36;8.13;;;4.47;;
18200;SDS011;9226;47.858;9.594;2022-12-31T19:53:01;8.53;;;4.80;;
18200;SDS011;9226;47.858;9.594;2022-12-31T19:55:26;7.87;;;4.77;;
18200;SDS011;9226;47.858;9.594;2022-12-31T19:57:52;10.37;;;4.97;;
18200;SDS011;9226;47.858;9.594;2022-12-31T20:00:18;8.90;;;4.90;;
18200;SDS011;9226;47.858;9.594;2022-12-31T20:02:45;12.77;;;6.67;;
18200;SDS011;9226;47.858;9.594;2022-12-31T20:05:11;49.10;;;27.10;;
18200;SDS011;9226;47.858;9.594;2022-12-31T20:07:39;21.23;;;10.30;;
18200;SDS011;9226;47.858;9.594;2022-12-31T20:10:04;29.80;;;16.87;;
18200;SDS011;9226;47.858;9.594;2022-12-31T20:12:30;24.47;;;13.37;;
18200;SDS011;9226;47.858;9.594;2022-12-31T20:14:56;11.20;;;6.03;;
18200;SDS011;9226;47.858;9.594;2022-12-31T20:17:21;55.70;;;26.67;;
18200;SDS011;9226;47.858;9.594;2022-12-31T20:19:47;28.07;;;13.27;;
18200;SDS011;9226;47.858;9.594;2022-12-31T20:22:12;32.97;;;14.93;;
18200;SDS011;9226;47.858;9.594;2022-12-31T20:24:38;15.73;;;7.43;;
18200;SDS011;9226;47.858;9.594;2022-12-31T20:27:03;10.33;;;5.40;;
18200;SDS011;9226;47.858;9.594;2022-12-31T20:29:31;7.23;;;3.80;;